Terminal Aerodrome Forecast
Issued by NWS Charleston, WV

Current Version | Previous Version | Text Only | Print | Product List | Glossary Off
Versions: 1 2 3 4 5 6 7 8 9 10 11 12 13 14 15 16 17 18 19 20 21 22 23

000
FTUS41 KRLX 170300 AAA
TAFCRW
TAF AMD
KCRW 170307Z 1703/1724 26010KT 6SM -DZ BR BKN015
     FM170900 27007KT 6SM BR OVC015
     FM171500 27008KT P6SM OVC015
     FM172000 26009G15KT P6SM OVC025=

USA.gov is the U.S. government's official web portal to all federal, state and local government web resources and services.